sensor_id;sensor_type;location;lat;lon;timestamp;pressure;altitude;pressure_sealevel;temperature;humidity
77011;BME280;65945;53.148;17.956;2023-04-07T00:01:11;101454.25;;;2.16;78.51
77011;BME280;65945;53.148;17.956;2023-04-07T00:03:38;101450.14;;;2.15;78.49
77011;BME280;65945;53.148;17.956;2023-04-07T00:06:06;101448.05;;;2.14;79.18
77011;BME280;65945;53.148;17.956;2023-04-07T00:08:32;101443.67;;;2.12;79.97
77011;BME280;65945;53.148;17.956;2023-04-07T00:10:59;101444.27;;;2.11;79.48
77011;BME280;65945;53.148;17.956;2023-04-07T00:13:26;101446.17;;;2.10;79.33
77011;BME280;65945;53.148;17.956;2023-04-07T00:15:52;101444.90;;;2.10;79.10
77011;BME280;65945;53.148;17.956;2023-04-07T00:18:19;101442.14;;;2.12;79.67
77011;BME280;65945;53.148;17.956;2023-04-07T00:20:46;101440.03;;;2.12;79.20
77011;BME280;65945;53.148;17.956;2023-04-07T00:23:12;101439.60;;;2.13;79.15
77011;BME280;65945;53.148;17.956;2023-04-07T00:25:39;101437.80;;;2.14;78.66
77011;BME280;65945;53.148;17.956;2023-04-07T00:28:06;101437.06;;;2.13;79.90
77011;BME280;65945;53.148;17.956;2023-04-07T00:30:32;101436.98;;;2.11;80.66
77011;BME280;65945;53.148;17.956;2023-04-07T00:32:59;101432.38;;;2.11;79.74
77011;BME280;65945;53.148;17.956;2023-04-07T00:35:25;101426.73;;;2.12;80.01
77011;BME280;65945;53.148;17.956;2023-04-07T00:37:52;101423.40;;;2.12;80.36
77011;BME280;65945;53.148;17.956;2023-04-07T00:40:18;101424.45;;;2.13;80.49
77011;BME280;65945;53.148;17.956;2023-04-07T00:42:45;101422.60;;;2.13;80.34
77011;BME280;65945;53.148;17.956;2023-04-07T00:45:12;101413.74;;;2.13;80.69
77011;BME280;65945;53.148;17.956;2023-04-07T00:47:39;101411.90;;;2.13;80.55
77011;BME280;65945;53.148;17.956;2023-04-07T00:50:06;101408.15;;;2.13;80.62
77011;BME280;65945;53.148;17.956;2023-04-07T00:52:33;101406.81;;;2.14;80.34
77011;BME280;65945;53.148;17.956;2023-04-07T00:54:59;101400.52;;;2.15;80.75
77011;BME280;65945;53.148;17.956;2023-04-07T00:57:26;101404.36;;;2.17;80.48
77011;BME280;65945;53.148;17.956;2023-04-07T00:59:53;101403.08;;;2.19;80.92
77011;BME280;65945;53.148;17.956;2023-04-07T01:02:34;101406.67;;;2.18;81.57
77011;BME280;65945;53.148;17.956;2023-04-07T01:05:11;101405.77;;;2.18;81.10
77011;BME280;65945;53.148;17.956;2023-04-07T01:07:54;101406.83;;;2.19;80.77
77011;BME280;65945;53.148;17.956;2023-04-07T01:10:27;101409.39;;;2.22;80.04
77011;BME280;65945;53.148;17.956;2023-04-07T01:13:05;101411.67;;;2.27;79.97
77011;BME280;65945;53.148;17.956;2023-04-07T01:15:34;101408.44;;;2.29;80.56
77011;BME280;65945;53.148;17.956;2023-04-07T01:18:11;101404.79;;;2.31;80.26
77011;BME280;65945;53.148;17.956;2023-04-07T01:20:40;101396.71;;;2.32;80.46
77011;BME280;65945;53.148;17.956;2023-04-07T01:23:17;101391.46;;;2.34;80.34
77011;BME280;65945;53.148;17.956;2023-04-07T01:26:11;101385.95;;;2.36;80.08
77011;BME280;65945;53.148;17.956;2023-04-07T01:31:11;101381.87;;;2.38;80.91
77011;BME280;65945;53.148;17.956;2023-04-07T01:33:38;101380.84;;;2.35;82.51
77011;BME280;65945;53.148;17.956;2023-04-07T01:36:08;101377.52;;;2.31;82.13
77011;BME280;65945;53.148;17.956;2023-04-07T01:38:36;101372.05;;;2.31;81.89
77011;BME280;65945;53.148;17.956;2023-04-07T01:41:04;101366.45;;;2.32;81.50
77011;BME280;65945;53.148;17.956;2023-04-07T01:43:32;101368.28;;;2.33;82.02
77011;BME280;65945;53.148;17.956;2023-04-07T01:45:59;101364.02;;;2.32;82.19
77011;BME280;65945;53.148;17.956;2023-04-07T01:48:27;101365.85;;;2.34;81.62
77011;BME280;65945;53.148;17.956;2023-04-07T01:50:54;101370.80;;;2.35;82.70
77011;BME280;65945;53.148;17.956;2023-04-07T01:53:22;101368.63;;;2.35;82.01
77011;BME280;65945;53.148;17.956;2023-04-07T01:55:49;101367.46;;;2.37;81.94
77011;BME280;65945;53.148;17.956;2023-04-07T01:58:17;101367.92;;;2.37;82.25
77011;BME280;65945;53.148;17.956;2023-04-07T02:00:44;101363.17;;;2.36;82.39
77011;BME280;65945;53.148;17.956;2023-04-07T02:03:22;101360.95;;;2.36;81.89
77011;BME280;65945;53.148;17.956;2023-04-07T02:05:54;101369.57;;;2.38;82.91
77011;BME280;65945;53.148;17.956;2023-04-07T02:08:26;101366.19;;;2.37;82.34
77011;BME280;65945;53.148;17.956;2023-04-07T02:10:54;101369.09;;;2.39;82.25
77011;BME280;65945;53.148;17.956;2023-04-07T02:13:22;101369.02;;;2.40;81.84
77011;BME280;65945;53.148;17.956;2023-04-07T02:15:50;101368.41;;;2.43;81.59
77011;BME280;65945;53.148;17.956;2023-04-07T02:18:19;101370.46;;;2.44;82.09
77011;BME280;65945;53.148;17.956;2023-04-07T02:20:47;101366.82;;;2.44;82.40
77011;BME280;65945;53.148;17.956;2023-04-07T02:23:15;101366.41;;;2.42;82.44
77011;BME280;65945;53.148;17.956;2023-04-07T02:25:42;101365.41;;;2.42;82.34
77011;BME280;65945;53.148;17.956;2023-04-07T02:28:09;101363.61;;;2.42;82.34
77011;BME280;65945;53.148;17.956;2023-04-07T02:30:36;101364.35;;;2.43;82.07
77011;BME280;65945;53.148;17.956;2023-04-07T02:33:02;101362.95;;;2.44;82.32
77011;BME280;65945;53.148;17.956;2023-04-07T02:35:29;101359.38;;;2.44;82.37
77011;BME280;65945;53.148;17.956;2023-04-07T02:37:56;101354.41;;;2.43;82.60
77011;BME280;65945;53.148;17.956;2023-04-07T02:40:22;101351.61;;;2.44;82.03
77011;BME280;65945;53.148;17.956;2023-04-07T02:42:53;101344.78;;;2.46;82.28
77011;BME280;65945;53.148;17.956;2023-04-07T02:45:22;101342.80;;;2.48;81.89
77011;BME280;65945;53.148;17.956;2023-04-07T02:47:49;101340.36;;;2.49;81.91
77011;BME280;65945;53.148;17.956;2023-04-07T02:50:17;101333.63;;;2.51;81.69
77011;BME280;65945;53.148;17.956;2023-04-07T02:52:44;101334.87;;;2.54;81.66
77011;BME280;65945;53.148;17.956;2023-04-07T02:55:13;101336.91;;;2.56;81.69
77011;BME280;65945;53.148;17.956;2023-04-07T02:57:39;101329.14;;;2.57;81.89
77011;BME280;65945;53.148;17.956;2023-04-07T03:00:10;101330.93;;;2.58;81.73
77011;BME280;65945;53.148;17.956;2023-04-07T03:02:51;101327.59;;;2.59;81.97
77011;BME280;65945;53.148;17.956;2023-04-07T03:05:18;101329.95;;;2.59;82.16
77011;BME280;65945;53.148;17.956;2023-04-07T03:07:44;101332.02;;;2.60;82.50
77011;BME280;65945;53.148;17.956;2023-04-07T03:10:11;101328.95;;;2.59;82.21
77011;BME280;65945;53.148;17.956;2023-04-07T03:12:38;101329.05;;;2.60;82.68
77011;BME280;65945;53.148;17.956;2023-04-07T03:15:05;101324.58;;;2.58;82.51
77011;BME280;65945;53.148;17.956;2023-04-07T03:17:33;101319.42;;;2.57;82.99
77011;BME280;65945;53.148;17.956;2023-04-07T03:19:59;101320.01;;;2.57;83.05
77011;BME280;65945;53.148;17.956;2023-04-07T03:22:26;101318.63;;;2.57;82.62
77011;BME280;65945;53.148;17.956;2023-04-07T03:24:53;101321.47;;;2.58;82.91
77011;BME280;65945;53.148;17.956;2023-04-07T03:27:21;101318.77;;;2.58;83.00
77011;BME280;65945;53.148;17.956;2023-04-07T03:29:48;101321.02;;;2.59;82.86
77011;BME280;65945;53.148;17.956;2023-04-07T03:32:16;101316.96;;;2.60;82.90
77011;BME280;65945;53.148;17.956;2023-04-07T03:34:43;101316.04;;;2.61;83.34
77011;BME280;65945;53.148;17.956;2023-04-07T03:37:10;101313.09;;;2.62;83.15
77011;BME280;65945;53.148;17.956;2023-04-07T03:39:37;101315.86;;;2.63;83.50
77011;BME280;65945;53.148;17.956;2023-04-07T03:42:12;101310.94;;;2.65;83.20
77011;BME280;65945;53.148;17.956;2023-04-07T03:44:38;101309.52;;;2.68;83.24
77011;BME280;65945;53.148;17.956;2023-04-07T03:47:05;101304.86;;;2.69;83.42
77011;BME280;65945;53.148;17.956;2023-04-07T03:49:32;101302.16;;;2.70;83.63
77011;BME280;65945;53.148;17.956;2023-04-07T03:52:00;101299.67;;;2.71;83.33
77011;BME280;65945;53.148;17.956;2023-04-07T03:54:27;101298.76;;;2.72;83.18
77011;BME280;65945;53.148;17.956;2023-04-07T03:56:54;101299.48;;;2.73;84.37
77011;BME280;65945;53.148;17.956;2023-04-07T03:59:22;101305.46;;;2.73;84.16
77011;BME280;65945;53.148;17.956;2023-04-07T04:01:56;101307.35;;;2.74;84.22
77011;BME280;65945;53.148;17.956;2023-04-07T04:04:23;101310.14;;;2.74;84.67
77011;BME280;65945;53.148;17.956;2023-04-07T04:06:50;101306.27;;;2.76;84.44
77011;BME280;65945;53.148;17.956;2023-04-07T04:09:21;101306.77;;;2.78;84.05
77011;BME280;65945;53.148;17.956;2023-04-07T04:11:48;101306.01;;;2.80;84.04
77011;BME280;65945;53.148;17.956;2023-04-07T04:14:15;101313.22;;;2.82;84.08
77011;BME280;65945;53.148;17.956;2023-04-07T04:16:46;101312.88;;;2.84;84.10
77011;BME280;65945;53.148;17.956;2023-04-07T04:19:26;101315.08;;;2.85;84.21
77011;BME280;65945;53.148;17.956;2023-04-07T04:21:54;101311.27;;;2.87;84.26
77011;BME280;65945;53.148;17.956;2023-04-07T04:24:21;101314.31;;;2.88;84.33
77011;BME280;65945;53.148;17.956;2023-04-07T04:26:48;101315.23;;;2.90;84.06
77011;BME280;65945;53.148;17.956;2023-04-07T04:29:14;101314.41;;;2.93;84.19
77011;BME280;65945;53.148;17.956;2023-04-07T04:31:42;101314.70;;;2.95;83.81
77011;BME280;65945;53.148;17.956;2023-04-07T04:34:09;101312.77;;;2.97;84.02
77011;BME280;65945;53.148;17.956;2023-04-07T04:36:37;101312.31;;;3.00;84.02
77011;BME280;65945;53.148;17.956;2023-04-07T04:39:06;101310.96;;;3.01;84.57
77011;BME280;65945;53.148;17.956;2023-04-07T04:41:33;101312.48;;;3.03;84.27
77011;BME280;65945;53.148;17.956;2023-04-07T04:44:00;101311.14;;;3.04;84.50
77011;BME280;65945;53.148;17.956;2023-04-07T04:46:27;101306.53;;;3.06;84.35
77011;BME280;65945;53.148;17.956;2023-04-07T04:48:54;101309.83;;;3.08;84.21
77011;BME280;65945;53.148;17.956;2023-04-07T04:51:21;101308.22;;;3.10;84.48
77011;BME280;65945;53.148;17.956;2023-04-07T04:53:52;101314.11;;;3.13;84.50
77011;BME280;65945;53.148;17.956;2023-04-07T04:56:20;101313.33;;;3.16;84.24
77011;BME280;65945;53.148;17.956;2023-04-07T04:58:48;101310.48;;;3.19;84.52
77011;BME280;65945;53.148;17.956;2023-04-07T05:01:21;101309.27;;;3.23;84.51
77011;BME280;65945;53.148;17.956;2023-04-07T05:03:53;101309.64;;;3.26;84.47
77011;BME280;65945;53.148;17.956;2023-04-07T05:06:26;101306.54;;;3.28;84.52
77011;BME280;65945;53.148;17.956;2023-04-07T05:08:55;101308.77;;;3.32;84.57
77011;BME280;65945;53.148;17.956;2023-04-07T05:11:24;101312.10;;;3.36;84.74
77011;BME280;65945;53.148;17.956;2023-04-07T05:13:52;101313.25;;;3.38;84.99
77011;BME280;65945;53.148;17.956;2023-04-07T05:16:19;101315.73;;;3.42;84.79
77011;BME280;65945;53.148;17.956;2023-04-07T05:18:46;101313.30;;;3.46;84.95
77011;BME280;65945;53.148;17.956;2023-04-07T05:21:14;101316.78;;;3.50;85.21
77011;BME280;65945;53.148;17.956;2023-04-07T05:23:40;101314.77;;;3.52;85.33
77011;BME280;65945;53.148;17.956;2023-04-07T05:26:08;101317.27;;;3.56;85.44
77011;BME280;65945;53.148;17.956;2023-04-07T05:28:35;101314.14;;;3.60;85.49
77011;BME280;65945;53.148;17.956;2023-04-07T05:31:05;101311.71;;;3.63;85.64
77011;BME280;65945;53.148;17.956;2023-04-07T05:33:32;101314.50;;;3.67;85.58
77011;BME280;65945;53.148;17.956;2023-04-07T05:35:59;101313.95;;;3.71;85.42
77011;BME280;65945;53.148;17.956;2023-04-07T05:38:26;101315.15;;;3.76;85.37
77011;BME280;65945;53.148;17.956;2023-04-07T05:40:55;101313.13;;;3.80;85.64
77011;BME280;65945;53.148;17.956;2023-04-07T05:43:25;101316.20;;;3.85;85.40
77011;BME280;65945;53.148;17.956;2023-04-07T05:45:52;101321.31;;;3.88;85.19
77011;BME280;65945;53.148;17.956;2023-04-07T05:48:19;101318.36;;;3.91;85.93
77011;BME280;65945;53.148;17.956;2023-04-07T05:50:46;101317.27;;;3.93;86.10
77011;BME280;65945;53.148;17.956;2023-04-07T05:53:16;101317.25;;;3.95;86.02
77011;BME280;65945;53.148;17.956;2023-04-07T05:55:43;101316.25;;;3.97;86.11
77011;BME280;65945;53.148;17.956;2023-04-07T05:58:11;101317.55;;;3.99;86.20
77011;BME280;65945;53.148;17.956;2023-04-07T06:00:40;101313.36;;;4.00;86.24
77011;BME280;65945;53.148;17.956;2023-04-07T06:03:09;101313.16;;;4.01;86.26
77011;BME280;65945;53.148;17.956;2023-04-07T06:05:53;101307.95;;;4.03;86.15
77011;BME280;65945;53.148;17.956;2023-04-07T06:08:20;101310.03;;;4.05;86.40
77011;BME280;65945;53.148;17.956;2023-04-07T06:10:47;101305.29;;;4.06;86.12
77011;BME280;65945;53.148;17.956;2023-04-07T06:13:13;101306.91;;;4.08;86.38
77011;BME280;65945;53.148;17.956;2023-04-07T06:15:40;101312.15;;;4.11;86.49
77011;BME280;65945;53.148;17.956;2023-04-07T06:18:06;101316.23;;;4.15;86.32
77011;BME280;65945;53.148;17.956;2023-04-07T06:20:33;101318.55;;;4.18;86.03
77011;BME280;65945;53.148;17.956;2023-04-07T06:23:01;101319.13;;;4.22;85.99
77011;BME280;65945;53.148;17.956;2023-04-07T06:25:27;101320.33;;;4.24;86.28
77011;BME280;65945;53.148;17.956;2023-04-07T06:27:54;101319.66;;;4.27;86.43
77011;BME280;65945;53.148;17.956;2023-04-07T06:30:22;101320.22;;;4.31;85.41
77011;BME280;65945;53.148;17.956;2023-04-07T06:32:49;101312.95;;;4.35;86.01
77011;BME280;65945;53.148;17.956;2023-04-07T06:35:16;101313.36;;;4.39;85.77
77011;BME280;65945;53.148;17.956;2023-04-07T06:37:42;101314.10;;;4.42;85.64
77011;BME280;65945;53.148;17.956;2023-04-07T06:40:09;101319.02;;;4.45;85.49
77011;BME280;65945;53.148;17.956;2023-04-07T06:42:35;101319.74;;;4.48;85.27
77011;BME280;65945;53.148;17.956;2023-04-07T06:45:14;101322.00;;;4.49;85.75
77011;BME280;65945;53.148;17.956;2023-04-07T06:47:41;101324.20;;;4.51;85.54
77011;BME280;65945;53.148;17.956;2023-04-07T06:50:08;101326.35;;;4.53;85.51
77011;BME280;65945;53.148;17.956;2023-04-07T06:52:34;101328.38;;;4.55;85.74
77011;BME280;65945;53.148;17.956;2023-04-07T06:55:01;101326.23;;;4.56;85.71
77011;BME280;65945;53.148;17.956;2023-04-07T06:57:28;101323.77;;;4.58;85.30
77011;BME280;65945;53.148;17.956;2023-04-07T06:59:55;101323.34;;;4.60;85.80
77011;BME280;65945;53.148;17.956;2023-04-07T07:02:22;101317.73;;;4.63;85.52
77011;BME280;65945;53.148;17.956;2023-04-07T07:04:50;101317.73;;;4.65;85.37
77011;BME280;65945;53.148;17.956;2023-04-07T07:07:16;101317.27;;;4.67;85.35
77011;BME280;65945;53.148;17.956;2023-04-07T07:09:43;101310.87;;;4.70;85.45
77011;BME280;65945;53.148;17.956;2023-04-07T07:12:09;101315.54;;;4.72;85.22
77011;BME280;65945;53.148;17.956;2023-04-07T07:14:36;101313.58;;;4.75;85.17
77011;BME280;65945;53.148;17.956;2023-04-07T07:17:02;101316.30;;;4.79;85.08
77011;BME280;65945;53.148;17.956;2023-04-07T07:19:29;101319.39;;;4.81;85.41
77011;BME280;65945;53.148;17.956;2023-04-07T07:21:56;101325.99;;;4.85;85.19
77011;BME280;65945;53.148;17.956;2023-04-07T07:24:22;101326.79;;;4.88;85.31
77011;BME280;65945;53.148;17.956;2023-04-07T07:26:49;101322.19;;;4.89;85.53
77011;BME280;65945;53.148;17.956;2023-04-07T07:29:16;101327.17;;;4.92;85.46
77011;BME280;65945;53.148;17.956;2023-04-07T07:31:42;101330.96;;;4.93;85.40
77011;BME280;65945;53.148;17.956;2023-04-07T07:34:09;101333.91;;;4.96;85.35
77011;BME280;65945;53.148;17.956;2023-04-07T07:36:35;101333.14;;;4.99;85.27
77011;BME280;65945;53.148;17.956;2023-04-07T07:39:02;101334.69;;;5.01;85.20
77011;BME280;65945;53.148;17.956;2023-04-07T07:41:29;101332.00;;;5.02;85.59
77011;BME280;65945;53.148;17.956;2023-04-07T07:43:56;101336.61;;;5.05;85.25
77011;BME280;65945;53.148;17.956;2023-04-07T07:46:22;101339.59;;;5.07;85.63
77011;BME280;65945;53.148;17.956;2023-04-07T07:48:51;101344.55;;;5.09;85.44
77011;BME280;65945;53.148;17.956;2023-04-07T07:51:18;101342.40;;;5.10;85.63
77011;BME280;65945;53.148;17.956;2023-04-07T07:53:44;101343.91;;;5.11;85.97
77011;BME280;65945;53.148;17.956;2023-04-07T07:56:12;101343.46;;;5.13;85.87
77011;BME280;65945;53.148;17.956;2023-04-07T07:58:38;101342.19;;;5.12;85.86
77011;BME280;65945;53.148;17.956;2023-04-07T08:01:05;101343.02;;;5.14;85.91
77011;BME280;65945;53.148;17.956;2023-04-07T08:03:32;101338.76;;;5.17;85.87
77011;BME280;65945;53.148;17.956;2023-04-07T08:05:58;101337.02;;;5.19;85.86
77011;BME280;65945;53.148;17.956;2023-04-07T08:08:25;101337.67;;;5.23;85.60
77011;BME280;65945;53.148;17.956;2023-04-07T08:10:52;101332.80;;;5.28;85.78
77011;BME280;65945;53.148;17.956;2023-04-07T08:13:18;101332.64;;;5.32;86.00
77011;BME280;65945;53.148;17.956;2023-04-07T08:15:45;101329.31;;;5.37;85.96
77011;BME280;65945;53.148;17.956;2023-04-07T08:18:11;101326.69;;;5.43;85.48
77011;BME280;65945;53.148;17.956;2023-04-07T08:20:38;101324.84;;;5.49;85.30
77011;BME280;65945;53.148;17.956;2023-04-07T08:23:05;101328.14;;;5.56;85.08
77011;BME280;65945;53.148;17.956;2023-04-07T08:25:31;101330.16;;;5.63;84.90
77011;BME280;65945;53.148;17.956;2023-04-07T08:27:58;101334.30;;;5.68;84.87
77011;BME280;65945;53.148;17.956;2023-04-07T08:30:24;101330.85;;;5.72;85.02
77011;BME280;65945;53.148;17.956;2023-04-07T08:32:51;101331.27;;;5.77;84.92
77011;BME280;65945;53.148;17.956;2023-04-07T08:35:18;101335.13;;;5.83;84.51
77011;BME280;65945;53.148;17.956;2023-04-07T08:37:44;101337.10;;;5.90;84.74
77011;BME280;65945;53.148;17.956;2023-04-07T08:40:11;101335.56;;;5.93;84.34
77011;BME280;65945;53.148;17.956;2023-04-07T08:42:41;101336.00;;;5.98;84.10
77011;BME280;65945;53.148;17.956;2023-04-07T08:45:09;101335.87;;;6.05;84.02
77011;BME280;65945;53.148;17.956;2023-04-07T08:47:36;101326.71;;;6.15;83.72
77011;BME280;65945;53.148;17.956;2023-04-07T08:50:08;101327.69;;;6.26;83.75
77011;BME280;65945;53.148;17.956;2023-04-07T08:52:45;101330.59;;;6.39;83.38
77011;BME280;65945;53.148;17.956;2023-04-07T08:55:13;101331.92;;;6.49;83.28
77011;BME280;65945;53.148;17.956;2023-04-07T08:57:41;101330.30;;;6.56;82.78
77011;BME280;65945;53.148;17.956;2023-04-07T09:00:09;101331.01;;;6.61;82.67
77011;BME280;65945;53.148;17.956;2023-04-07T09:02:38;101326.61;;;6.63;82.48
77011;BME280;65945;53.148;17.956;2023-04-07T09:05:07;101330.34;;;6.68;82.62
77011;BME280;65945;53.148;17.956;2023-04-07T09:07:35;101329.27;;;6.69;82.03
77011;BME280;65945;53.148;17.956;2023-04-07T09:10:02;101333.33;;;6.70;82.56
77011;BME280;65945;53.148;17.956;2023-04-07T09:12:31;101336.78;;;6.71;82.50
77011;BME280;65945;53.148;17.956;2023-04-07T09:14:58;101336.96;;;6.70;82.69
77011;BME280;65945;53.148;17.956;2023-04-07T09:17:26;101336.40;;;6.65;82.64
77011;BME280;65945;53.148;17.956;2023-04-07T09:19:57;101336.17;;;6.63;82.86
77011;BME280;65945;53.148;17.956;2023-04-07T09:25:20;101333.77;;;6.68;82.96
77011;BME280;65945;53.148;17.956;2023-04-07T09:30:24;101334.40;;;6.82;83.03
77011;BME280;65945;53.148;17.956;2023-04-07T09:32:51;101334.16;;;6.83;82.99
77011;BME280;65945;53.148;17.956;2023-04-07T09:35:18;101333.41;;;6.85;82.63
77011;BME280;65945;53.148;17.956;2023-04-07T09:38:00;101330.19;;;6.87;82.64
77011;BME280;65945;53.148;17.956;2023-04-07T09:40:27;101326.95;;;6.93;82.44
77011;BME280;65945;53.148;17.956;2023-04-07T09:42:54;101323.50;;;7.00;82.54
77011;BME280;65945;53.148;17.956;2023-04-07T09:45:25;101320.17;;;7.09;82.20
77011;BME280;65945;53.148;17.956;2023-04-07T09:47:52;101316.75;;;7.18;81.95
77011;BME280;65945;53.148;17.956;2023-04-07T09:50:37;101314.61;;;7.28;81.48
77011;BME280;65945;53.148;17.956;2023-04-07T09:53:04;101313.70;;;7.36;81.37
77011;BME280;65945;53.148;17.956;2023-04-07T09:55:32;101312.92;;;7.46;81.28
77011;BME280;65945;53.148;17.956;2023-04-07T09:57:59;101307.86;;;7.53;80.90
77011;BME280;65945;53.148;17.956;2023-04-07T10:00:27;101308.86;;;7.59;81.06
77011;BME280;65945;53.148;17.956;2023-04-07T10:02:53;101307.82;;;7.68;81.27
77011;BME280;65945;53.148;17.956;2023-04-07T10:05:20;101309.72;;;7.79;81.29
77011;BME280;65945;53.148;17.956;2023-04-07T10:07:47;101310.77;;;7.93;81.05
77011;BME280;65945;53.148;17.956;2023-04-07T10:10:14;101308.56;;;8.09;80.68
77011;BME280;65945;53.148;17.956;2023-04-07T10:12:42;101306.38;;;8.22;80.31
77011;BME280;65945;53.148;17.956;2023-04-07T10:15:12;101305.45;;;8.29;79.99
77011;BME280;65945;53.148;17.956;2023-04-07T10:17:46;101303.27;;;8.35;79.80
77011;BME280;65945;53.148;17.956;2023-04-07T10:20:16;101303.67;;;8.40;79.98
77011;BME280;65945;53.148;17.956;2023-04-07T10:22:45;101298.11;;;8.46;79.19
77011;BME280;65945;53.148;17.956;2023-04-07T10:25:16;101300.96;;;8.45;79.12
77011;BME280;65945;53.148;17.956;2023-04-07T10:27:47;101299.28;;;8.49;79.19
77011;BME280;65945;53.148;17.956;2023-04-07T10:30:25;101300.16;;;8.53;79.22
77011;BME280;65945;53.148;17.956;2023-04-07T10:32:53;101302.67;;;8.53;79.14
77011;BME280;65945;53.148;17.956;2023-04-07T10:35:20;101307.66;;;8.58;79.21
77011;BME280;65945;53.148;17.956;2023-04-07T10:40:33;101298.31;;;8.65;79.22
77011;BME280;65945;53.148;17.956;2023-04-07T10:43:01;101301.40;;;8.67;79.01
77011;BME280;65945;53.148;17.956;2023-04-07T10:48:19;101298.23;;;8.68;79.50
77011;BME280;65945;53.148;17.956;2023-04-07T10:53:36;101301.19;;;8.79;78.94
77011;BME280;65945;53.148;17.956;2023-04-07T10:56:03;101300.21;;;8.83;78.72
77011;BME280;65945;53.148;17.956;2023-04-07T10:58:32;101296.15;;;8.92;78.67
77011;BME280;65945;53.148;17.956;2023-04-07T11:03:30;101297.24;;;9.05;78.08
77011;BME280;65945;53.148;17.956;2023-04-07T11:06:11;101296.34;;;9.09;78.13
77011;BME280;65945;53.148;17.956;2023-04-07T11:08:40;101298.03;;;9.14;78.17
77011;BME280;65945;53.148;17.956;2023-04-07T11:11:09;101298.81;;;9.18;78.19
77011;BME280;65945;53.148;17.956;2023-04-07T11:13:43;101295.33;;;9.23;78.48
77011;BME280;65945;53.148;17.956;2023-04-07T11:16:10;101298.88;;;9.22;77.59
77011;BME280;65945;53.148;17.956;2023-04-07T11:18:38;101294.39;;;9.22;77.79
77011;BME280;65945;53.148;17.956;2023-04-07T11:21:06;101298.66;;;9.20;77.32
77011;BME280;65945;53.148;17.956;2023-04-07T11:23:41;101295.05;;;9.13;76.91
77011;BME280;65945;53.148;17.956;2023-04-07T11:26:10;101297.08;;;9.15;76.94
77011;BME280;65945;53.148;17.956;2023-04-07T11:28:51;101290.43;;;9.27;76.61
77011;BME280;65945;53.148;17.956;2023-04-07T11:31:26;101285.64;;;9.33;76.69
77011;BME280;65945;53.148;17.956;2023-04-07T11:36:39;101280.84;;;9.41;76.83
77011;BME280;65945;53.148;17.956;2023-04-07T11:39:20;101281.09;;;9.42;76.85
77011;BME280;65945;53.148;17.956;2023-04-07T11:41:48;101280.46;;;9.44;77.16
77011;BME280;65945;53.148;17.956;2023-04-07T11:44:15;101282.86;;;9.51;77.02
77011;BME280;65945;53.148;17.956;2023-04-07T11:49:24;101277.29;;;9.66;76.81
77011;BME280;65945;53.148;17.956;2023-04-07T11:52:02;101279.67;;;9.75;76.65
77011;BME280;65945;53.148;17.956;2023-04-07T11:54:43;101274.88;;;9.84;76.27
77011;BME280;65945;53.148;17.956;2023-04-07T11:57:13;101276.39;;;9.96;76.30
77011;BME280;65945;53.148;17.956;2023-04-07T11:59:40;101271.78;;;10.07;75.40
77011;BME280;65945;53.148;17.956;2023-04-07T12:02:07;101265.33;;;10.10;75.02
77011;BME280;65945;53.148;17.956;2023-04-07T12:04:33;101264.36;;;10.15;74.77
77011;BME280;65945;53.148;17.956;2023-04-07T12:07:09;101258.29;;;10.24;75.36
77011;BME280;65945;53.148;17.956;2023-04-07T12:09:36;101257.20;;;10.37;75.20
77011;BME280;65945;53.148;17.956;2023-04-07T12:12:04;101256.98;;;10.44;74.51
77011;BME280;65945;53.148;17.956;2023-04-07T12:14:31;101257.33;;;10.43;74.12
77011;BME280;65945;53.148;17.956;2023-04-07T12:16:59;101257.77;;;10.40;73.94
77011;BME280;65945;53.148;17.956;2023-04-07T12:19:30;101256.55;;;10.40;73.98
77011;BME280;65945;53.148;17.956;2023-04-07T12:21:59;101252.55;;;10.45;74.59
77011;BME280;65945;53.148;17.956;2023-04-07T12:24:26;101253.02;;;10.52;74.51
77011;BME280;65945;53.148;17.956;2023-04-07T12:26:52;101249.23;;;10.65;74.82
77011;BME280;65945;53.148;17.956;2023-04-07T12:29:19;101244.37;;;10.79;74.54
77011;BME280;65945;53.148;17.956;2023-04-07T12:31:46;101244.69;;;10.86;73.66
77011;BME280;65945;53.148;17.956;2023-04-07T12:34:12;101245.16;;;10.92;73.87
77011;BME280;65945;53.148;17.956;2023-04-07T12:36:39;101244.00;;;11.02;73.70
77011;BME280;65945;53.148;17.956;2023-04-07T12:39:05;101246.39;;;11.14;72.54
77011;BME280;65945;53.148;17.956;2023-04-07T12:41:32;101245.85;;;11.30;73.12
77011;BME280;65945;53.148;17.956;2023-04-07T12:43:59;101245.27;;;11.46;72.32
77011;BME280;65945;53.148;17.956;2023-04-07T12:46:25;101241.95;;;11.51;71.46
77011;BME280;65945;53.148;17.956;2023-04-07T12:48:52;101245.19;;;11.60;72.12
77011;BME280;65945;53.148;17.956;2023-04-07T12:51:19;101247.52;;;11.75;72.39
77011;BME280;65945;53.148;17.956;2023-04-07T12:53:45;101247.45;;;11.89;71.52
77011;BME280;65945;53.148;17.956;2023-04-07T12:56:13;101245.91;;;11.92;70.41
77011;BME280;65945;53.148;17.956;2023-04-07T12:58:40;101248.73;;;11.89;70.13
77011;BME280;65945;53.148;17.956;2023-04-07T13:01:06;101250.96;;;11.77;70.21
77011;BME280;65945;53.148;17.956;2023-04-07T13:03:33;101253.55;;;11.71;70.50
77011;BME280;65945;53.148;17.956;2023-04-07T13:05:59;101258.30;;;11.71;70.73
77011;BME280;65945;53.148;17.956;2023-04-07T13:08:27;101263.63;;;11.70;70.82
77011;BME280;65945;53.148;17.956;2023-04-07T13:10:55;101268.69;;;11.73;70.94
77011;BME280;65945;53.148;17.956;2023-04-07T13:13:22;101265.14;;;11.78;71.20
77011;BME280;65945;53.148;17.956;2023-04-07T13:15:49;101261.84;;;11.86;71.23
77011;BME280;65945;53.148;17.956;2023-04-07T13:18:16;101267.83;;;11.95;70.77